x

West Oregon - 275nm West Of Coos Bay, Or (46002) Weather Station

4:50am - Mon 2nd Mar 2015 All times are UTC.

  • Wind
    22mph, 27mph gusts
  • Sea Temp 55°f
  • Air Temp 53°f
  • Sea Pressure 1024.6mb

More Historic Weather Station data

Upgrade to MSW Pro to gain access to the past 30 days of data for over 8000 Wavebouys and Weather Stations around the globe.

Join Pro

Comparision Forecast

View Surf forecast
   
Mon 03/02 4:50am  -   -   -  22 27 mph 1024.6mb 55f 53f
3:50am 6ft 8s 5s 22 25 mph 1024.6mb 55f 53f
2:50am 6ft 6s 5s 22 25 mph 1024.5mb 55f 53f
1:50am 6ft 8s 6s 11 13 mph 1023.9mb 55f 52f
12:50am 6.5ft 7s 6s 20 25 mph 1024.8mb 55f 53f
Sun 03/01 11:50pm 6ft 8s 5s 22 27 mph 1025.2mb 55f 53f
10:50pm 7ft 6s 6s 20 25 mph 1025.2mb 55f 53f
9:50pm 6.5ft 8s 6s 20 22 mph 1025.6mb 55f 53f
8:50pm  -   -   -  20 25 mph 1026.2mb 55f 53f
7:50pm 7ft 9s 6s 20 25 mph 1026.5mb 55f 53f
6:50pm 7.5ft 8s 6s 20 22 mph 1026.4mb 55f 52f
5:50pm 7ft 9s 6s 20 25 mph 1026.2mb 55f 52f
4:50pm 7.5ft 8s 6s 22 27 mph 1026.2mb 55f 52f
3:50pm 7ft 9s 6s 20 27 mph 1026mb 55f 52f
2:50pm 8ft 9s 6s 20 27 mph 1025.9mb 55f 52f
1:50pm 8ft 9s 6s 22 27 mph 1025.7mb 55f 52f
12:50pm 8ft 8s 6s 20 25 mph 1025.8mb 55f 52f
11:50am 8.5ft 10s 6s 22 27 mph 1025.8mb 55f 52f
10:50am 8ft 10s 6s 22 27 mph 1026.1mb 55f 52f
9:50am 9ft 9s 6s 22 27 mph 1026mb 55f 52f
8:50am 8.5ft 10s 6s 22 25 mph 1026.3mb 55f 52f
7:50am 9.5ft 10s 7s 22 27 mph 1026.2mb 55f 52f
6:50am 9ft 10s 7s 20 27 mph 1026.1mb 55f 52f
5:50am 9.5ft 10s 7s 22 27 mph 1025.8mb 55f 52f
4:50am 10ft 11s 7s 25 29 mph 1025.5mb 55f 53f
3:50am 11ft 11s 7s 22 27 mph 1025.2mb 55f 53f
2:50am 11ft 10s 7s 22 27 mph 1024.7mb 55f 53f
1:50am 10.5ft 10s 7s 25 31 mph 1024.5mb 55f 54f
12:50am 11ft 11s 7s 27 31 mph 1024.1mb 55f 54f
Sat 02/28 11:50pm 12ft 11s 7s 27 31 mph 1024mb 55f 54f
10:50pm 11ft 10s 7s 25 31 mph 1023.6mb 55f 54f
9:50pm 11ft 11s 7s 22 27 mph 1023.5mb 55f 54f
8:50pm 13.5ft 11s 7s 25 29 mph 1023.2mb 55f 54f
7:50pm 14ft 11s 7s 27 31 mph 1022.9mb 55f 54f
6:50pm 14ft 11s 7s 27 34 mph 1022.4mb 55f 54f
5:50pm 14ft 10s 7s 27 34 mph 1021.6mb 55f 54f
4:50pm 15.5ft 11s 8s 29 36 mph 1020.5mb 55f 54f
3:50pm 15ft 10s 8s 31 38 mph 1019.5mb 55f 53f
2:50pm  -   -   -  29 38 mph 1018.6mb 55f 53f
1:50pm 13ft 11s 7s 31 38 mph 1018mb 55f 53f
12:50pm 14ft 11s 7s 31 38 mph 1017.2mb 55f 53f
11:50am 14.5ft 10s 7s 31 38 mph 1016.8mb 55f 52f
10:50am 13ft 11s 7s 31 38 mph 1016.5mb 55f 52f
9:50am 14.5ft 10s 7s 29 36 mph 1016.4mb 55f 52f
8:50am 14ft 10s 7s 31 38 mph 1015.9mb 55f 52f
7:50am 13ft 11s 7s 29 36 mph 1015.8mb 55f 53f
6:50am 15ft 9s 7s 31 38 mph 1015.4mb 55f 53f
5:50am  -   -   -  29 36 mph 1015.4mb 55f 52f
4:50am 13ft 9s 7s 34 43 mph 1014.9mb 55f 51f
3:50am 13ft 9s 7s 29 36 mph 1015mb 55f 53f
2:50am 13ft 9s 7s 29 38 mph 1015mb 55f 52f
1:50am 11.5ft 9s 7s 29 36 mph 1015mb 55f 53f
12:50am 14ft 8s 7s 29 38 mph 1015.1mb 55f 53f
Fri 02/27 11:50pm 11.5ft 8s 7s 27 34 mph 1015.6mb 55f 52f
10:50pm 10.5ft 8s 6s 29 36 mph 1015.2mb 55f 53f
9:50pm 10.5ft 9s 6s 29 36 mph 1015.5mb 55f 51f
8:50pm 10ft 9s 6s 27 34 mph 1016.1mb 55f 52f
7:50pm 11ft 8s 7s 27 34 mph 1016.4mb 55f 53f
6:50pm 9.5ft 8s 6s 27 34 mph 1016.7mb 55f 52f
5:50pm 11ft 8s 7s 25 29 mph 1016.9mb 55f 52f
4:50pm 9.5ft 8s 6s 22 27 mph 1017mb 55f 52f
3:50pm 10ft 8s 6s 27 34 mph 1016.8mb 55f 52f
2:50pm 9ft 8s 6s 25 29 mph 1017.1mb 55f 51f
1:50pm 10.5ft 8s 6s 25 31 mph 1017.3mb 55f 51f
12:50pm  -   -   -  25 34 mph 1017.4mb 55f 51f
11:50am  -   -   -  25 31 mph 1017.8mb 55f 51f
10:50am 9ft 8s 6s 25 31 mph 1018.4mb 55f 52f
9:50am 9ft 8s 6s 25 31 mph 1018.7mb 55f 52f
8:50am 9ft 7s 6s 27 34 mph 1019.2mb 55f 52f
7:50am 8ft 8s 6s 25 31 mph 1019.4mb 55f 53f
6:50am 8ft 7s 6s 25 29 mph 1020mb 55f 52f
5:50am 8ft 7s 6s 25 31 mph 1020.2mb 55f 54f
4:50am 8ft 6s 6s 25 34 mph 1020.1mb 55f 54f
3:50am 7.5ft 7s 6s 25 31 mph 1020mb 55f 55f
2:50am 7ft 7s 6s 22 29 mph 1020.4mb 55f 55f
1:50am 7ft 6s 6s 22 27 mph 1020.9mb 55f 55f
12:50am 7ft 7s 6s 22 27 mph 1021.9mb 55f 55f
Thu 02/26 11:50pm 7ft 11s 6s 25 31 mph 1022.4mb 55f 55f
10:50pm 6ft 11s 5s 25 31 mph 1022.8mb 55f 55f
9:50pm 6ft 11s 6s 22 25 mph 1023.5mb 55f 55f
8:50pm 6ft 11s 6s 20 25 mph 1024.4mb 55f 55f
7:50pm 6ft 10s 6s 20 25 mph 1025.7mb 55f 55f
6:50pm 5.5ft 6s 6s 20 25 mph 1026.5mb 55f 55f
5:50pm 5.5ft 11s 6s 18 22 mph 1026.8mb 55f 55f
4:50pm 5.5ft 11s 6s 20 22 mph 1026.9mb 55f 55f
3:50pm 6ft 11s 6s 20 22 mph 1027.1mb 55f 55f
2:50pm 5.5ft 11s 6s 20 25 mph 1027.4mb 55f 55f
1:50pm 5ft 11s 6s 18 22 mph 1027.5mb 55f 55f
12:50pm 6ft 11s 6s 18 22 mph 1028mb 55f 55f
11:50am 5.5ft 11s 6s 16 22 mph 1028.4mb 55f 54f
10:50am 5ft 12s 6s 16 20 mph 1029.2mb 55f 55f
9:50am 5ft 11s 6s 16 20 mph 1030.1mb 55f 55f
8:50am 5ft 11s 7s 13 18 mph 1030.2mb 55f 54f
7:50am  -   -   -  13 18 mph 1030.9mb 55f 54f
6:50am 4.5ft 11s 6s 13 16 mph 1031.6mb 55f 54f